createdAt,value
2022-10-26T00:02:14.377Z,100876.91
2022-10-26T00:04:59.600Z,100873.06
2022-10-26T00:07:44.472Z,100868.13
2022-10-26T00:10:31.607Z,100878.59
2022-10-26T00:13:16.850Z,100878.53
2022-10-26T00:16:02.150Z,100877.53
2022-10-26T00:18:47.776Z,100883.47
2022-10-26T00:21:32.958Z,100883.75
2022-10-26T00:27:02.667Z,100886.69
2022-10-26T00:29:47.579Z,100881.38
2022-10-26T00:32:33.132Z,100880.53
2022-10-26T00:35:23.262Z,100871.88
2022-10-26T00:38:14.084Z,100881.25
2022-10-26T00:40:59.506Z,100883.13
2022-10-26T00:43:45.333Z,100878.66
2022-10-26T00:46:37.458Z,100877.75
2022-10-26T00:49:22.363Z,100876.22
2022-10-26T00:52:09.037Z,100871.06
2022-10-26T00:54:54.085Z,100868.50
2022-10-26T00:57:39.796Z,100862.44
2022-10-26T01:00:24.810Z,100872.06
2022-10-26T01:03:11.217Z,100864.53
2022-10-26T01:05:58.768Z,100855.25
2022-10-26T01:08:44.001Z,100860.16
2022-10-26T01:11:29.105Z,100855.84
2022-10-26T01:14:17.655Z,100855.09
2022-10-26T01:17:11.762Z,100856.56
2022-10-26T01:19:59.798Z,100853.88
2022-10-26T01:23:02.237Z,100847.03
2022-10-26T01:25:53.297Z,100844.38
2022-10-26T01:28:48.473Z,100852.31
2022-10-26T01:31:42.816Z,100843.81
2022-10-26T01:34:42.871Z,100838.53
2022-10-26T01:37:35.671Z,100836.06
2022-10-26T01:40:31.090Z,100829.19
2022-10-26T01:43:17.137Z,100832.75
2022-10-26T01:46:06.170Z,100825.72
2022-10-26T01:48:56.993Z,100822.97
2022-10-26T01:51:44.102Z,100822.31
2022-10-26T01:54:29.414Z,100814.66
2022-10-26T01:57:19.077Z,100811.34
2022-10-26T02:00:08.499Z,100809.56
2022-10-26T02:02:56.249Z,100814.66
2022-10-26T02:06:06.674Z,100814.66
2022-10-26T02:09:08.806Z,100807.69
2022-10-26T02:11:55.493Z,100804.34
2022-10-26T02:14:51.025Z,100805.19
2022-10-26T02:17:53.709Z,100797.31
2022-10-26T02:20:46.802Z,100798.91
2022-10-26T02:23:35.071Z,100793.94
2022-10-26T02:26:24.242Z,100792.94
2022-10-26T02:29:13.897Z,100788.09
2022-10-26T02:32:01.312Z,100786.19
2022-10-26T02:34:48.929Z,100774.13
2022-10-26T02:37:36.426Z,100770.69
2022-10-26T02:40:26.063Z,100775.25
2022-10-26T02:43:15.066Z,100768.16
2022-10-26T02:46:05.777Z,100769.63
2022-10-26T02:48:50.516Z,100768.88
2022-10-26T02:51:54.014Z,100770.56
2022-10-26T02:54:51.156Z,100768.09
2022-10-26T02:57:38.923Z,100771.56
2022-10-26T03:00:24.449Z,100767.13
2022-10-26T03:03:09.821Z,100773.38
2022-10-26T03:05:54.897Z,100775.06
2022-10-26T03:08:39.863Z,100773.22
2022-10-26T03:11:24.794Z,100773.22
2022-10-26T03:14:10.220Z,100769.28
2022-10-26T03:16:55.828Z,100759.00
2022-10-26T03:19:40.805Z,100760.56
2022-10-26T03:22:25.968Z,100751.13
2022-10-26T03:25:10.856Z,100758.16
2022-10-26T03:28:00.772Z,100753.84
2022-10-26T03:30:45.682Z,100753.03
2022-10-26T03:33:30.545Z,100754.06
2022-10-26T03:36:15.967Z,100755.00
2022-10-26T03:39:01.084Z,100757.69
2022-10-26T03:41:46.133Z,100756.91
2022-10-26T03:44:31.562Z,100749.09
2022-10-26T03:47:17.541Z,100750.06
2022-10-26T03:50:02.938Z,100741.50
2022-10-26T03:52:49.540Z,100748.44
2022-10-26T03:55:34.658Z,100745.78
2022-10-26T03:58:20.569Z,100746.63
2022-10-26T04:01:05.487Z,100735.59
2022-10-26T04:03:50.928Z,100746.94
2022-10-26T04:06:36.684Z,100737.28
2022-10-26T04:09:23.294Z,100751.97
2022-10-26T04:12:08.703Z,100742.72
2022-10-26T04:14:53.830Z,100744.38
2022-10-26T04:17:39.097Z,100747.72
2022-10-26T04:20:25.456Z,100746.78
2022-10-26T04:23:16.500Z,100752.06
2022-10-26T04:26:01.508Z,100750.53
2022-10-26T04:28:46.609Z,100759.13
2022-10-26T04:31:32.195Z,100750.34
2022-10-26T04:34:17.395Z,100753.75
2022-10-26T04:37:02.289Z,100749.53
2022-10-26T04:39:47.157Z,100748.84
2022-10-26T04:42:32.035Z,100749.81
2022-10-26T04:45:17.020Z,100732.72
2022-10-26T04:48:11.372Z,100742.22
2022-10-26T04:51:00.472Z,100738.03
2022-10-26T04:53:45.271Z,100732.78
2022-10-26T04:56:30.406Z,100737.16
2022-10-26T04:59:15.742Z,100733.69
2022-10-26T05:02:00.970Z,100735.50
2022-10-26T05:04:46.435Z,100729.53
2022-10-26T05:07:31.273Z,100729.59
2022-10-26T05:10:16.400Z,100728.00
2022-10-26T05:13:01.713Z,100734.00
2022-10-26T05:15:46.798Z,100731.22
2022-10-26T05:18:31.647Z,100733.84
2022-10-26T05:21:17.479Z,100737.34
2022-10-26T05:24:02.431Z,100743.31
2022-10-26T05:26:47.645Z,100731.31
2022-10-26T05:29:32.495Z,100736.44
2022-10-26T05:32:17.216Z,100734.81
2022-10-26T05:35:02.702Z,100739.97
2022-10-26T05:37:47.675Z,100743.44
2022-10-26T05:40:32.624Z,100744.28
2022-10-26T05:43:18.749Z,100734.84
2022-10-26T05:46:03.957Z,100746.16
2022-10-26T05:48:49.134Z,100739.25
2022-10-26T05:51:34.229Z,100741.00
2022-10-26T05:54:19.440Z,100736.00
2022-10-26T05:57:05.179Z,100740.31
2022-10-26T05:59:50.211Z,100741.25
2022-10-26T06:03:06.535Z,100755.91
2022-10-26T06:06:00.703Z,100747.28
2022-10-26T06:08:48.093Z,100757.69
2022-10-26T06:11:33.159Z,100767.16
2022-10-26T06:14:18.614Z,100762.94
2022-10-26T06:17:21.845Z,100763.84
2022-10-26T06:20:31.185Z,100759.59
2022-10-26T06:23:43.994Z,100757.91
2022-10-26T06:26:32.767Z,100770.09
2022-10-26T06:29:55.464Z,100777.91
2022-10-26T06:33:01.087Z,100780.53
2022-10-26T06:36:18.214Z,100776.13
2022-10-26T06:39:07.508Z,100776.31
2022-10-26T06:41:52.496Z,100781.59
2022-10-26T06:44:37.894Z,100779.91
2022-10-26T06:47:48.004Z,100779.09
2022-10-26T06:50:41.697Z,100783.44
2022-10-26T06:53:43.844Z,100780.03
2022-10-26T06:56:29.486Z,100776.72
2022-10-26T06:59:37.578Z,100775.16
2022-10-26T07:02:23.200Z,100772.56
2022-10-26T07:05:08.421Z,100773.56
2022-10-26T07:07:53.724Z,100779.63
2022-10-26T07:10:39.313Z,100776.31
2022-10-26T07:13:24.508Z,100770.31
2022-10-26T07:16:09.947Z,100766.91
2022-10-26T07:18:55.554Z,100768.72
2022-10-26T07:21:40.464Z,100765.34
2022-10-26T07:24:26.053Z,100774.81
2022-10-26T07:27:11.351Z,100770.47
2022-10-26T07:29:56.214Z,100770.53
2022-10-26T07:32:41.460Z,100772.28
2022-10-26T07:35:26.477Z,100765.53
2022-10-26T07:38:12.686Z,100767.38
2022-10-26T07:40:57.913Z,100768.31
2022-10-26T07:43:42.790Z,100767.53
2022-10-26T07:46:28.649Z,100767.53
2022-10-26T07:49:16.269Z,100765.94
2022-10-26T07:52:04.443Z,100766.88
2022-10-26T07:54:49.642Z,100764.31
2022-10-26T07:57:34.555Z,100754.88
2022-10-26T08:00:19.860Z,100750.53
2022-10-26T08:03:04.861Z,100749.75
2022-10-26T08:05:50.071Z,100749.00
2022-10-26T08:08:35.338Z,100757.78
2022-10-26T08:11:20.392Z,100744.94
2022-10-26T08:14:05.775Z,100743.28
2022-10-26T08:16:50.788Z,100745.00
2022-10-26T08:19:36.166Z,100747.59
2022-10-26T08:22:21.408Z,100752.84
2022-10-26T08:25:06.973Z,100745.94
2022-10-26T08:27:52.522Z,100739.94
2022-10-26T08:30:37.603Z,100735.66
2022-10-26T08:33:23.340Z,100730.44
2022-10-26T08:36:08.232Z,100721.06
2022-10-26T08:38:53.803Z,100728.88
2022-10-26T08:41:46.554Z,100734.97
2022-10-26T08:44:51.249Z,100731.59
2022-10-26T08:47:44.499Z,100727.28
2022-10-26T08:50:42.063Z,100720.34
2022-10-26T08:53:27.889Z,100717.78
2022-10-26T08:56:21.879Z,100720.38
2022-10-26T08:59:24.989Z,100718.69
2022-10-26T09:02:14.193Z,100716.09
2022-10-26T09:05:00.429Z,100709.19
2022-10-26T09:07:45.666Z,100700.56
2022-10-26T09:10:33.557Z,100704.91
2022-10-26T09:13:42.288Z,100703.22
2022-10-26T09:16:42.432Z,100693.69
2022-10-26T09:19:45.552Z,100693.69
2022-10-26T09:22:38.743Z,100691.09
2022-10-26T09:25:29.517Z,100684.16
2022-10-26T09:28:18.717Z,100690.28
2022-10-26T09:31:04.851Z,100685.91
2022-10-26T09:33:51.921Z,100678.97
2022-10-26T09:36:36.982Z,100679.84
2022-10-26T09:39:33.843Z,100689.41
2022-10-26T09:42:43.224Z,100696.31
2022-10-26T09:45:28.034Z,100676.34
2022-10-26T09:48:22.673Z,100671.13
2022-10-26T09:51:07.840Z,100664.13
2022-10-26T09:53:56.140Z,100664.06
2022-10-26T09:56:43.685Z,100677.06
2022-10-26T09:59:33.684Z,100670.09
2022-10-26T10:02:38.654Z,100666.59
2022-10-26T10:05:45.798Z,100681.28
2022-10-26T10:08:30.254Z,100696.09
2022-10-26T10:11:15.594Z,100720.28
2022-10-26T10:14:07.615Z,100683.66
2022-10-26T10:16:57.719Z,100686.97
2022-10-26T10:19:42.440Z,100691.22
2022-10-26T10:22:28.332Z,100694.50
2022-10-26T10:25:26.114Z,100631.63
2022-10-26T10:31:22.606Z,100668.16
2022-10-26T10:34:22.127Z,100666.56
2022-10-26T10:37:15.117Z,100687.47
2022-10-26T10:40:08.021Z,100645.56
2022-10-26T10:43:03.038Z,100661.22
2022-10-26T10:45:53.671Z,100669.78
2022-10-26T10:48:47.367Z,100663.63
2022-10-26T10:51:39.542Z,100677.50
2022-10-26T10:54:39.113Z,100658.22
2022-10-26T10:57:47.599Z,100637.78
2022-10-26T11:00:37.023Z,100655.69
2022-10-26T11:03:50.374Z,100620.75
2022-10-26T11:06:40.981Z,100664.44
2022-10-26T11:09:29.708Z,100678.97
2022-10-26T11:12:37.623Z,100648.81
2022-10-26T11:15:26.199Z,100668.47
2022-10-26T11:18:33.912Z,100682.53
2022-10-26T11:21:31.121Z,100664.94
2022-10-26T11:24:29.838Z,100686.00
2022-10-26T11:27:17.999Z,100674.03
2022-10-26T11:30:19.601Z,100715.06
2022-10-26T11:33:13.781Z,100716.38
2022-10-26T11:36:05.009Z,100719.19
2022-10-26T11:38:59.298Z,100724.94
2022-10-26T11:41:56.245Z,100698.59
2022-10-26T11:44:57.894Z,100708.03
2022-10-26T11:47:52.681Z,100716.75
2022-10-26T11:50:54.237Z,100705.38
2022-10-26T11:53:43.965Z,100722.06
2022-10-26T11:56:39.319Z,100728.03
2022-10-26T11:59:33.296Z,100750.59
2022-10-26T12:02:24.506Z,100695.38
2022-10-26T12:05:15.454Z,100682.50
2022-10-26T12:08:05.482Z,100691.28
2022-10-26T12:11:05.278Z,100677.91
2022-10-26T12:13:56.695Z,100701.66
2022-10-26T12:17:11.525Z,100699.88
2022-10-26T12:20:18.027Z,100687.22
2022-10-26T12:23:05.106Z,100747.44
2022-10-26T12:25:50.225Z,100715.19
2022-10-26T12:28:35.394Z,100710.97
2022-10-26T12:31:32.938Z,100691.16
2022-10-26T12:34:30.675Z,100725.41
2022-10-26T12:37:32.030Z,100736.69
2022-10-26T12:40:43.382Z,100726.97
2022-10-26T12:43:31.463Z,100753.41
2022-10-26T12:46:16.888Z,100710.50
2022-10-26T12:49:01.933Z,100727.56
2022-10-26T12:51:46.716Z,100758.00
2022-10-26T12:54:40.106Z,100776.13
2022-10-26T12:57:46.248Z,100747.75
2022-10-26T13:00:34.443Z,100764.66
2022-10-26T13:03:34.433Z,100752.31
2022-10-26T13:06:31.814Z,100764.44
2022-10-26T13:09:37.408Z,100777.34
2022-10-26T13:12:22.626Z,100755.63
2022-10-26T13:15:24.480Z,100724.88
2022-10-26T13:18:16.586Z,100798.81
2022-10-26T13:21:09.437Z,100763.16
2022-10-26T13:23:54.157Z,100756.47
2022-10-26T13:27:07.140Z,100774.63
2022-10-26T13:30:04.777Z,100812.94
2022-10-26T13:32:55.792Z,100814.66
2022-10-26T13:35:42.929Z,100822.59
2022-10-26T13:38:33.765Z,100824.84
2022-10-26T13:41:30.507Z,100816.72
2022-10-26T13:44:39.065Z,100843.81
2022-10-26T13:47:26.958Z,100836.75
2022-10-26T13:50:17.050Z,100842.94
2022-10-26T13:53:17.469Z,100857.75
2022-10-26T13:56:17.375Z,100842.63
2022-10-26T13:59:11.127Z,100840.53
2022-10-26T14:02:26.630Z,100824.91
2022-10-26T14:05:14.552Z,100840.06
2022-10-26T14:07:59.983Z,100840.91
2022-10-26T14:10:47.942Z,100833.31
2022-10-26T14:13:34.195Z,100840.34
2022-10-26T14:16:20.167Z,100849.09
2022-10-26T14:19:05.488Z,100859.59
2022-10-26T14:21:51.022Z,100857.91
2022-10-26T14:24:47.009Z,100870.28
2022-10-26T14:27:39.073Z,100880.09
2022-10-26T14:30:31.812Z,100866.94
2022-10-26T14:33:18.757Z,100888.81
2022-10-26T14:36:04.671Z,100888.00
2022-10-26T14:38:56.734Z,100897.69
2022-10-26T14:41:42.673Z,100886.44
2022-10-26T14:44:27.738Z,100897.81
2022-10-26T14:47:32.559Z,100904.00
2022-10-26T14:50:22.158Z,100904.00
2022-10-26T14:53:16.716Z,100893.47
2022-10-26T14:56:04.113Z,100894.94
2022-10-26T14:58:49.815Z,100892.56
2022-10-26T15:01:49.412Z,100899.53
2022-10-26T15:04:36.089Z,100888.00
2022-10-26T15:07:21.051Z,100894.31
2022-10-26T15:10:06.096Z,100918.13
2022-10-26T15:12:51.266Z,100926.19
2022-10-26T15:15:39.584Z,100940.31
2022-10-26T15:18:35.038Z,100942.16
2022-10-26T15:21:27.028Z,100942.13
2022-10-26T15:24:39.251Z,100967.56
2022-10-26T15:27:25.134Z,100967.69
2022-10-26T15:30:21.487Z,100964.28
2022-10-26T15:33:19.877Z,100972.25
2022-10-26T15:36:08.222Z,100967.88
2022-10-26T15:38:53.665Z,100980.28
2022-10-26T15:41:45.981Z,100981.16
2022-10-26T15:44:30.790Z,100986.50
2022-10-26T15:47:18.531Z,100986.53
2022-10-26T15:50:04.191Z,100990.06
2022-10-26T15:52:49.797Z,101006.72
2022-10-26T15:55:35.889Z,100998.88
2022-10-26T15:58:21.609Z,100999.78
2022-10-26T16:01:06.662Z,101003.31
2022-10-26T16:03:52.992Z,101006.78
2022-10-26T16:06:39.897Z,101011.09
2022-10-26T16:09:24.615Z,101007.66
2022-10-26T16:12:13.569Z,101008.56
2022-10-26T16:15:05.458Z,101026.16
2022-10-26T16:17:51.947Z,101023.56
2022-10-26T16:20:37.402Z,101027.91
2022-10-26T16:23:22.996Z,101024.31
2022-10-26T16:26:08.839Z,101024.31
2022-10-26T16:28:53.690Z,101028.91
2022-10-26T16:31:38.428Z,101050.75
2022-10-26T16:34:23.240Z,101080.50
2022-10-26T16:37:08.083Z,101084.00
2022-10-26T16:39:52.924Z,101097.94
2022-10-26T16:42:37.997Z,101087.50
2022-10-26T16:45:23.026Z,101074.44
2022-10-26T16:48:09.222Z,101084.00
2022-10-26T16:50:54.115Z,101091.81
2022-10-26T16:53:40.436Z,101090.97
2022-10-26T16:56:29.731Z,101094.44
2022-10-26T16:59:14.747Z,101096.19
2022-10-26T17:01:59.818Z,101099.63
2022-10-26T17:04:44.855Z,101093.50
2022-10-26T17:07:29.611Z,101115.28
2022-10-26T17:10:14.603Z,101113.34
2022-10-26T17:12:59.443Z,101138.50
2022-10-26T17:15:45.416Z,101132.44
2022-10-26T17:18:30.616Z,101145.50
2022-10-26T17:21:17.736Z,101146.47
2022-10-26T17:24:03.309Z,101155.09
2022-10-26T17:26:48.647Z,101161.09
2022-10-26T17:29:33.357Z,101161.84
2022-10-26T17:32:18.147Z,101167.00
2022-10-26T17:35:03.972Z,101174.06
2022-10-26T17:37:49.565Z,101170.69
2022-10-26T17:40:34.588Z,101176.66
2022-10-26T17:43:19.573Z,101191.13
2022-10-26T17:46:07.499Z,101205.69
2022-10-26T17:48:57.273Z,101215.47
2022-10-26T17:51:42.416Z,101216.38
2022-10-26T17:54:27.224Z,101227.59
2022-10-26T17:57:11.988Z,101229.38
2022-10-26T17:59:56.953Z,101226.91
2022-10-26T18:02:41.979Z,101231.25
2022-10-26T18:05:27.368Z,101230.06
2022-10-26T18:08:12.419Z,101226.75
2022-10-26T18:10:57.334Z,101237.88
2022-10-26T18:13:42.660Z,101235.25
2022-10-26T18:16:28.035Z,101254.91
2022-10-26T18:19:13.266Z,101259.81
2022-10-26T18:21:58.481Z,101269.66
2022-10-26T18:24:43.325Z,101270.66
2022-10-26T18:27:28.540Z,101270.63
2022-10-26T18:30:13.842Z,101275.88
2022-10-26T18:32:58.890Z,101274.13
2022-10-26T18:35:43.851Z,101284.53
2022-10-26T18:38:29.444Z,101280.69
2022-10-26T18:41:16.454Z,101290.03
2022-10-26T18:44:01.430Z,101299.69
2022-10-26T18:46:46.669Z,101302.09
2022-10-26T18:49:31.465Z,101296.81
2022-10-26T18:52:16.871Z,101308.59
2022-10-26T18:55:01.765Z,101310.41
2022-10-26T18:57:46.718Z,101325.84
2022-10-26T19:00:31.686Z,101327.69
2022-10-26T19:03:17.140Z,101331.41
2022-10-26T19:06:12.729Z,101330.63
2022-10-26T19:08:58.113Z,101335.91
2022-10-26T19:11:43.159Z,101339.50
2022-10-26T19:14:28.364Z,101335.06
2022-10-26T19:17:13.230Z,101338.31
2022-10-26T19:19:58.157Z,101340.13
2022-10-26T19:22:43.453Z,101343.22
2022-10-26T19:25:28.454Z,101344.03
2022-10-26T19:28:13.339Z,101352.44
2022-10-26T19:30:58.646Z,101360.72
2022-10-26T19:33:43.546Z,101377.09
2022-10-26T19:36:29.588Z,101368.38
2022-10-26T19:39:16.434Z,101374.78
2022-10-26T19:42:01.586Z,101377.97
2022-10-26T19:44:46.362Z,101372.81
2022-10-26T19:47:31.828Z,101382.28
2022-10-26T19:50:17.154Z,101372.59
2022-10-26T19:53:02.184Z,101379.72
2022-10-26T19:55:48.329Z,101372.59
2022-10-26T19:58:33.426Z,101377.97
2022-10-26T20:01:18.597Z,101391.06
2022-10-26T20:04:04.255Z,101389.28
2022-10-26T20:06:49.380Z,101392.00
2022-10-26T20:09:34.509Z,101396.22
2022-10-26T20:12:19.978Z,101399.94
2022-10-26T20:15:05.111Z,101400.31
2022-10-26T20:17:50.270Z,101401.13
2022-10-26T20:20:35.549Z,101411.09
2022-10-26T20:23:20.418Z,101418.09
2022-10-26T20:28:56.285Z,101425.78
2022-10-26T20:31:41.625Z,101423.03
2022-10-26T20:37:14.619Z,101425.78
2022-10-26T20:39:59.919Z,101413.84
2022-10-26T20:42:45.463Z,101426.09
2022-10-26T20:45:31.934Z,101413.25
2022-10-26T20:48:17.567Z,101413.69
2022-10-26T20:51:06.012Z,101405.28
2022-10-26T20:54:01.467Z,101425.78
2022-10-26T20:56:48.651Z,101433.78
2022-10-26T20:59:56.413Z,101450.31
2022-10-26T21:02:41.444Z,101440.06
2022-10-26T21:05:26.398Z,101451.97
2022-10-26T21:08:11.591Z,101451.06
2022-10-26T21:10:56.863Z,101445.91
2022-10-26T21:13:43.712Z,101446.69
2022-10-26T21:16:28.613Z,101442.25
2022-10-26T21:19:13.912Z,101439.00
2022-10-26T21:21:58.683Z,101446.56
2022-10-26T21:24:43.628Z,101443.28
2022-10-26T21:27:28.446Z,101443.19
2022-10-26T21:30:13.751Z,101456.88
2022-10-26T21:32:58.701Z,101448.41
2022-10-26T21:35:52.203Z,101456.03
2022-10-26T21:38:37.699Z,101464.09
2022-10-26T21:41:22.503Z,101469.41
2022-10-26T21:44:14.989Z,101467.78
2022-10-26T21:47:11.980Z,101472.94
2022-10-26T21:49:56.981Z,101479.84
2022-10-26T21:52:41.919Z,101487.75
2022-10-26T21:55:26.750Z,101488.56
2022-10-26T21:58:11.923Z,101487.97
2022-10-26T22:01:12.003Z,101478.38
2022-10-26T22:03:57.004Z,101483.53
2022-10-26T22:06:42.064Z,101485.09
2022-10-26T22:09:27.161Z,101479.78
2022-10-26T22:12:12.102Z,101488.38
2022-10-26T22:14:57.088Z,101490.06
2022-10-26T22:17:42.785Z,101493.41
2022-10-26T22:20:27.672Z,101490.81
2022-10-26T22:23:12.679Z,101497.09
2022-10-26T22:26:01.646Z,101501.66
2022-10-26T22:28:48.233Z,101492.13
2022-10-26T22:31:37.079Z,101482.50
2022-10-26T22:34:21.909Z,101487.91
2022-10-26T22:37:06.802Z,101487.16
2022-10-26T22:39:51.818Z,101485.31
2022-10-26T22:42:36.545Z,101471.94
2022-10-26T22:45:21.530Z,101482.03
2022-10-26T22:50:51.378Z,101484.28
2022-10-26T22:53:36.757Z,101494.53
2022-10-26T22:56:23.522Z,101488.44
2022-10-26T22:59:08.541Z,101491.94
2022-10-26T23:01:53.408Z,101489.47
2022-10-26T23:04:38.670Z,101496.94
2022-10-26T23:07:23.858Z,101495.97
2022-10-26T23:10:09.404Z,101504.09
2022-10-26T23:12:54.836Z,101505.84
2022-10-26T23:15:40.173Z,101503.88
2022-10-26T23:18:25.547Z,101513.38
2022-10-26T23:21:12.363Z,101508.81
2022-10-26T23:23:57.611Z,101516.56
2022-10-26T23:26:42.912Z,101521.91
2022-10-26T23:29:27.810Z,101522.91
2022-10-26T23:32:12.720Z,101522.03
2022-10-26T23:34:57.518Z,101522.81
2022-10-26T23:37:42.729Z,101531.41
2022-10-26T23:40:27.904Z,101534.72
2022-10-26T23:43:12.858Z,101522.22
2022-10-26T23:45:57.689Z,101533.06
2022-10-26T23:48:43.047Z,101539.13
2022-10-26T23:51:27.951Z,101533.94
2022-10-26T23:54:12.910Z,101537.53
2022-10-26T23:56:58.157Z,101541.88
2022-10-26T23:59:42.911Z,101540.06
